Terminal Aerodrome Forecast
Issued by NWS

Home | Current Version | Previous Version | Text Only | Print | Product List | Glossary On
Versions: 1 2 3 4 5 6 7 8 9 10 11 12 13 14
000
FTUS44 KHGX 200523
TAFCXO
TAF
KCXO 200523Z 2006/2106 VRB03KT 6SM BR SCT150
     FM200900 VRB03KT 3SM BR SCT015 SCT250
      TEMPO 2010/2012 1SM BR SCT003
     FM201400 14007KT P6SM FEW030 SCT070
     FM210000 VRB04KT P6SM BKN070 BKN120=

USA.gov is the U.S. government's official web portal to all federal, state and local government web resources and services.